Have a Safe July 4th! 

Flight Track Log - Related Links

Times and Time Zones

All times are in EDT time to prevent confusion due to time zone crossing. See the AWE1940 flight status page for this flight to view local times or setup timezone preferences in your user account.

Time Position Orientation Groundspeed Altitude Reporting Facility
EDT Latitude Longitude Course Direction KTS MPH feet Rate Location/Type
Wed 10:20:48 PM 35.1892 -80.9508 52° Northeast 180 207 1,900  Level Atlanta Center
Wed 10:22:25 PM 35.1022 -80.9797 195° South 232 267 6,300 2,803 Climbing Atlanta Center
Wed 10:23:20 PM 35.0956 -81.0483 263° West 235 270 9,000 2,292 Climbing Atlanta Center
Wed 10:23:54 PM 35.1297 -81.0750 327° Northwest 277 319 9,700 1,915 Climbing Atlanta Center
Wed 10:24:00 PM 35.2350 -81.2167 North  Level FlightAware Approximate
Wed 10:24:54 PM 35.2042 -81.0547 13° North 325 374 12,000  Level Atlanta Center
Wed 10:25:00 PM 35.3080 -81.1280 52° Northeast  Level FlightAware Approximate
Wed 10:25:54 PM 35.2953 -81.0258 15° North 348 400 13,800  Level Atlanta Center
Wed 10:26:00 PM 35.3792 -81.0161 52° Northeast  Level FlightAware Approximate
Wed 10:26:54 PM 35.3864 -80.9919 17° North 348 400 14,600  Level Atlanta Center
Wed 10:27:54 PM 35.4875 -80.9550 17° North 348 400 15,400 1,500 Climbing Atlanta Center
Wed 10:28:54 PM 35.5736 -80.8956 29° Northeast 343 395 17,600 2,350 Climbing Atlanta Center
Wed 10:29:54 PM 35.6733 -80.8767 North 349 402 20,100 2,000 Climbing Atlanta Center
Wed 10:30:54 PM 35.7817 -80.8672 North 371 427 21,600 1,650 Climbing Atlanta Center
Wed 10:31:54 PM 35.8981 -80.8550 North 402 463 23,400 1,900 Climbing Atlanta Center
Wed 10:32:54 PM 36.0186 -80.8425 North 424 488 25,400 1,800 Climbing Atlanta Center
Wed 10:33:54 PM 36.1394 -80.8275 North 424 488 27,000 1,550 Climbing Atlanta Center
Wed 10:34:54 PM 36.2642 -80.8147 North 434 499 28,500 1,600 Climbing Atlanta Center
Wed 10:35:54 PM 36.3819 -80.7792 14° North 440 506 30,200 1,600 Climbing Atlanta Center
Wed 10:36:54 PM 36.4794 -80.6822 39° Northeast 434 499 31,700 1,300 Climbing Atlanta Center
Wed 10:37:54 PM 36.5769 -80.5850 39° Northeast 439 505 32,800 700 Climbing Atlanta Center
Wed 10:38:54 PM 36.6600 -80.5011 39° Northeast 433 498 33,100 562 Climbing Atlanta Center
Wed 10:41:17 PM 36.9078 -80.2650 37° Northeast 441 507 34,700 559 Climbing Washington Center
Wed 10:42:18 PM 37.0033 -80.1694 39° Northeast 436 502 35,000 150 Climbing Washington Center
Wed 10:43:17 PM 37.0986 -80.0761 38° Northeast 436 502 35,000 50 Level Washington Center
Wed 10:44:17 PM 37.1853 -79.9900 38° Northeast 436 502 35,100  Climbing Washington Center
Wed 10:45:18 PM 37.2806 -79.8961 38° Northeast 436 502 35,000 -50 Descending Washington Center
Wed 10:46:17 PM 37.3756 -79.8022 38° Northeast 436 502 35,000 50 Level Washington Center
Wed 10:47:17 PM 37.4836 -79.6931 39° Northeast 451 519 35,100  Climbing Washington Center
Wed 10:48:18 PM 37.5703 -79.6033 39° Northeast 451 519 35,000  Descending Washington Center
Wed 10:49:19 PM 37.6758 -79.4961 39° Northeast 441 507 35,100  Climbing Washington Center
Wed 10:50:17 PM 37.7686 -79.4064 37° Northeast 441 507 35,000 -50 Descending Washington Center
Wed 10:51:19 PM 37.8719 -79.3011 39° Northeast 441 507 35,000  Level Washington Center
Wed 10:52:17 PM 37.9689 -79.2006 39° Northeast 441 507 35,000  Level Washington Center
Wed 10:53:17 PM 38.0656 -79.1022 39° Northeast 441 507 35,000  Level Washington Center
Wed 10:54:19 PM 38.1644 -79.0039 38° Northeast 436 502 35,000  Level Washington Center
Wed 10:55:18 PM 38.2503 -78.9153 39° Northeast 441 507 35,000  Level Washington Center
Wed 10:56:19 PM 38.3536 -78.8008 41° Northeast 435 501 35,000  Level Washington Center
Wed 10:57:17 PM 38.4522 -78.6989 39° Northeast 440 506 35,000  Level Washington Center
Wed 10:58:17 PM 38.5486 -78.5967 40° Northeast 445 512 35,000  Level Washington Center
Wed 10:59:18 PM 38.6469 -78.4944 39° Northeast 445 512 35,000  Level Washington Center
Wed 11:00:30 PM 38.7644 -78.3711 39° Northeast 445 512 35,000 45 Level Washington Center
Wed 11:01:31 PM 38.8608 -78.2656 40° Northeast 445 512 35,100 506 Climbing Washington Center
Wed 11:03:04 PM 39.0069 -78.1117 39° Northeast 439 505 36,300 745 Climbing New York Center
Wed 11:04:04 PM 39.1031 -78.0092 40° Northeast 444 511 37,000 350 Climbing New York Center
Wed 11:05:04 PM 39.1992 -77.9036 40° Northeast 444 511 37,000  Level New York Center
Wed 11:06:04 PM 39.2969 -77.8008 39° Northeast 449 517 37,000  Level New York Center
Wed 11:07:05 PM 39.3931 -77.6947 40° Northeast 449 517 37,000  Level New York Center
Wed 11:08:03 PM 39.4911 -77.5886 40° Northeast 449 517 37,000  Level New York Center
Wed 11:09:03 PM 39.5889 -77.4819 40° Northeast 449 517 37,000  Level New York Center
Wed 11:10:04 PM 39.6847 -77.3750 41° Northeast 449 517 37,000  Level New York Center
Wed 11:11:05 PM 39.7800 -77.2706 40° Northeast 449 517 37,000  Level New York Center
Wed 11:12:03 PM 39.8778 -77.1633 40° Northeast 449 517 37,000  Level New York Center
Wed 11:13:03 PM 39.9731 -77.0556 41° Northeast 449 517 37,000  Level New York Center
Wed 11:14:03 PM 40.0706 -76.9475 40° Northeast 449 517 37,000  Level New York Center
Wed 11:15:04 PM 40.1722 -76.8369 40° Northeast 449 517 37,000  Level New York Center
Wed 11:16:03 PM 40.2675 -76.7283 41° Northeast 444 511 37,000  Level New York Center
Wed 11:17:03 PM 40.3625 -76.6222 40° Northeast 444 511 37,000  Level New York Center
Wed 11:18:04 PM 40.4572 -76.5156 41° Northeast 444 511 37,000  Level New York Center
Wed 11:19:03 PM 40.5517 -76.4142 39° Northeast 444 511 37,000 -250 Level New York Center
Wed 11:20:04 PM 40.6489 -76.3017 41° Northeast 449 517 36,500 -1,300 Descending New York Center
Wed 11:21:03 PM 40.7392 -76.1967 41° Northeast 449 517 34,400 -1,966 Descending New York Center
Wed 11:22:03 PM 40.8358 -76.0864 41° Northeast 449 517 32,600 -1,339 Descending New York Center
Wed 11:23:04 PM 40.9325 -75.9758 41° Northeast 449 517 31,700 -885 Descending New York Center
Wed 11:24:05 PM 41.0247 -75.8647 42° Northeast 449 517 30,800 -958 Descending New York Center
Wed 11:25:03 PM 41.1211 -75.7536 41° Northeast 449 517 29,800 -864 Descending New York Center
Wed 11:26:03 PM 41.2172 -75.6447 40° Northeast 449 517 29,100 -397 Descending New York Center
Wed 11:27:04 PM 41.3156 -75.5331 40° Northeast 449 517 29,000 -50 Descending New York Center
Wed 11:28:04 PM 41.4117 -75.4208 41° Northeast 449 517 29,000  Level New York Center
Wed 11:29:04 PM 41.5056 -75.3083 42° Northeast 449 517 29,000 -100 Level New York Center
Wed 11:30:04 PM 41.6014 -75.1956 41° Northeast 449 517 28,800 -1,275 Descending New York Center
Wed 11:32:31 PM 41.8333 -74.9228 41° Northeast 473 544 24,600 -1,420 Descending Boston Center
Wed 11:33:31 PM 41.9361 -74.7983 42° Northeast 468 539 23,900 -1,200 Descending Boston Center
Wed 11:34:31 PM 42.0150 -74.7064 41° Northeast 443 510 22,200 -2,000 Descending Boston Center
Wed 11:35:31 PM 42.1092 -74.5894 43° Northeast 419 482 19,900 -2,250 Descending Boston Center
Wed 11:36:31 PM 42.1986 -74.4831 41° Northeast 419 482 17,700 -2,150 Descending Boston Center
Wed 11:37:31 PM 42.2839 -74.3792 42° Northeast 419 482 15,600 -2,154 Descending Boston Center
Wed 11:38:28 PM 42.3583 -74.2861 43° Northeast 398 458 13,500 -2,462 Descending Boston Center
Wed 11:39:28 PM 42.4411 -74.1844 42° Northeast 393 452 10,800 -1,736 Descending Boston Center
Wed 11:40:29 PM 42.5178 -74.0881 43° Northeast 334 384 10,000 -1,131 Descending Boston Center
Wed 11:41:30 PM 42.5933 -74.0447 23° Northeast 283 326 8,500 -1,537 Descending Boston Center
Wed 11:42:30 PM 42.6689 -74.0100 19° North 281 323 6,900 -1,636 Descending Boston Center
Wed 11:43:31 PM 42.7444 -73.9781 17° North 278 320 5,200 -1,672 Descending Boston Center
Wed 11:43:31 PM 42.7444 -73.9781 17° North 282 325 5,200 -900 Level Boston Center
Wed 11:44:31 PM 42.8136 -73.9486 17° North 267 307 4,300 -800 Descending Boston Center
Wed 11:45:31 PM 42.8619 -73.9017 35° Northeast 216 249 3,600 -885 Descending Boston Center
Wed 11:46:33 PM 42.8586 -73.8336 94° East 189 217 2,500 -1,065 Descending Boston Center

Login

Don't have an account? Register now (free) for customized features, flight alerts, and more!